Time;durP1;ratioP1;P1;durP2;ratioP2;P2;SDS_P1;SDS_P2;PMS_P1;PMS_P2;Temp;Humidity;BMP_temperature;BMP_pressure;BME280_temperature;BME280_humidity;BME280_pressure;Samples;Min_cycle;Max_cycle;Signal;HPM_P1;HPM_P2
2023/04/23 00:02:12;;;;;;;40.23;26.23;;;10.70;99.90;;;;;;5036810;28;20176;-80
2023/04/23 00:04:38;;;;;;;37.37;25.07;;;10.60;99.90;;;;;;5036744;28;20215;-80
2023/04/23 00:07:04;;;;;;;36.07;25.93;;;10.60;99.90;;;;;;5038357;28;20169;-80
2023/04/23 00:09:31;;;;;;;41.63;28.20;;;10.60;99.90;;;;;;5038415;28;20172;-80
2023/04/23 00:11:58;;;;;;;38.77;26.77;;;10.60;99.90;;;;;;5037953;28;20212;-81
2023/04/23 00:14:24;;;;;;;43.87;27.03;;;10.60;99.90;;;;;;5037692;28;20241;-81
2023/04/23 00:16:51;;;;;;;40.33;26.50;;;10.60;99.90;;;;;;5045938;28;20156;-80
2023/04/23 00:19:16;;;;;;;38.83;26.80;;;10.50;99.90;;;;;;5054954;28;20283;-80
2023/04/23 00:21:42;;;;;;;40.23;26.17;;;10.50;99.90;;;;;;5055598;28;20192;-81
2023/04/23 00:24:07;;;;;;;40.00;27.33;;;10.50;99.90;;;;;;5036283;28;20589;-80
2023/04/23 00:26:33;;;;;;;37.07;26.47;;;10.50;99.90;;;;;;5034071;28;20182;-81
2023/04/23 00:28:58;;;;;;;37.97;25.40;;;10.50;99.90;;;;;;5035180;28;20176;-80
2023/04/23 00:31:25;;;;;;;38.10;24.43;;;10.50;99.90;;;;;;5034784;28;20176;-81
2023/04/23 00:33:52;;;;;;;33.50;25.30;;;10.40;99.90;;;;;;5035327;28;20261;-80
2023/04/23 00:36:17;;;;;;;39.13;24.23;;;10.40;99.90;;;;;;5033585;28;20263;-81
2023/04/23 00:38:43;;;;;;;36.77;23.27;;;10.40;99.90;;;;;;5035455;28;20622;-81
2023/04/23 00:41:09;;;;;;;32.77;22.07;;;10.40;99.90;;;;;;5035154;28;20172;-80
2023/04/23 00:43:35;;;;;;;35.40;22.80;;;10.40;99.90;;;;;;5034931;28;20179;-81
2023/04/23 00:46:01;;;;;;;30.07;22.03;;;10.40;99.90;;;;;;5034993;28;20196;-80
2023/04/23 00:48:28;;;;;;;32.53;22.47;;;10.40;99.90;;;;;;5035019;28;20657;-81
2023/04/23 00:50:59;;;;;;;35.03;23.40;;;10.30;99.90;;;;;;5035031;28;20208;-81
2023/04/23 00:53:25;;;;;;;32.03;23.10;;;10.30;99.90;;;;;;5033743;28;20253;-80
2023/04/23 00:55:51;;;;;;;29.80;21.53;;;10.30;99.90;;;;;;5034891;28;20226;-80
2023/04/23 00:58:17;;;;;;;32.33;20.77;;;10.30;99.90;;;;;;5034791;28;20217;-81
2023/04/23 01:00:47;;;;;;;28.97;21.17;;;10.20;99.90;;;;;;5033251;28;20209;-80
2023/04/23 01:03:13;;;;;;;30.87;21.20;;;10.30;99.90;;;;;;5033332;28;20188;-80
2023/04/23 01:05:41;;;;;;;34.27;23.77;;;10.30;99.90;;;;;;5034582;28;20320;-80
2023/04/23 01:08:09;;;;;;;28.50;20.57;;;10.20;99.90;;;;;;5034614;28;20177;-80
2023/04/23 01:10:34;;;;;;;29.17;20.80;;;10.20;99.90;;;;;;5033509;28;20204;-80
2023/04/23 01:13:00;;;;;;;28.37;20.53;;;10.20;99.90;;;;;;5032018;28;20245;-80
2023/04/23 01:15:25;;;;;;;33.57;20.27;;;10.20;99.90;;;;;;5033845;28;20192;-80
2023/04/23 01:17:52;;;;;;;28.47;20.47;;;10.10;99.90;;;;;;5034984;28;20173;-81
2023/04/23 01:20:18;;;;;;;33.17;20.77;;;10.10;99.90;;;;;;5033546;28;20196;-80
2023/04/23 01:22:43;;;;;;;26.67;19.40;;;10.10;99.90;;;;;;5034542;28;20188;-80
2023/04/23 01:25:09;;;;;;;26.47;18.23;;;10.10;99.90;;;;;;5034052;28;20215;-80
2023/04/23 01:27:35;;;;;;;27.67;19.27;;;10.10;99.90;;;;;;5034665;28;20175;-81
2023/04/23 01:30:04;;;;;;;26.13;19.73;;;10.00;99.90;;;;;;5033006;28;20195;-81
2023/04/23 01:32:31;;;;;;;28.27;17.83;;;10.00;99.90;;;;;;5032809;28;20259;-81
2023/04/23 01:34:57;;;;;;;27.23;19.17;;;10.00;99.90;;;;;;5032597;28;20204;-80
2023/04/23 01:37:23;;;;;;;26.83;18.57;;;9.90;99.90;;;;;;5034568;28;20527;-80
2023/04/23 01:39:51;;;;;;;27.30;19.27;;;10.00;99.90;;;;;;5032186;28;20678;-80
2023/04/23 01:42:17;;;;;;;27.00;18.17;;;9.90;99.90;;;;;;5034067;28;20705;-80
2023/04/23 01:44:43;;;;;;;27.97;18.90;;;9.90;99.90;;;;;;5033682;28;20212;-80
2023/04/23 01:47:08;;;;;;;24.83;18.80;;;9.90;99.90;;;;;;5034881;28;20180;-81
2023/04/23 01:49:34;;;;;;;26.63;18.50;;;9.90;99.90;;;;;;5034267;28;20177;-80
2023/04/23 01:52:00;;;;;;;24.67;18.73;;;9.80;99.90;;;;;;5034592;28;20644;-80
2023/04/23 01:54:25;;;;;;;30.17;19.57;;;9.80;99.90;;;;;;5032395;28;20208;-80
2023/04/23 01:56:53;;;;;;;27.53;19.93;;;9.80;99.90;;;;;;5033457;28;20671;-80
2023/04/23 01:59:20;;;;;;;31.87;20.70;;;9.80;99.90;;;;;;5033914;28;20168;-80
2023/04/23 02:01:46;;;;;;;28.40;19.80;;;9.70;99.90;;;;;;5034108;28;20169;-80
2023/04/23 02:04:13;;;;;;;29.83;19.10;;;9.70;99.90;;;;;;5033328;28;20187;-81
2023/04/23 02:06:44;;;;;;;28.27;18.47;;;9.60;99.90;;;;;;5032895;28;20180;-80
2023/04/23 02:09:10;;;;;;;27.40;19.90;;;9.60;99.90;;;;;;5032582;28;20176;-80
2023/04/23 02:11:36;;;;;;;26.27;18.40;;;9.60;99.90;;;;;;5032698;28;20237;-80
2023/04/23 02:14:02;;;;;;;27.00;19.10;;;9.50;99.90;;;;;;5033730;28;20337;-80
2023/04/23 02:16:28;;;;;;;25.17;18.80;;;9.40;99.90;;;;;;5032184;28;20263;-80
2023/04/23 02:18:54;;;;;;;31.33;19.87;;;9.40;99.90;;;;;;5033963;28;20199;-80
2023/04/23 02:21:22;;;;;;;28.00;20.17;;;9.40;99.90;;;;;;5034103;28;20259;-80
2023/04/23 02:23:47;;;;;;;25.50;17.97;;;9.40;99.90;;;;;;5033696;28;20267;-80
2023/04/23 02:26:13;;;;;;;28.40;19.97;;;9.40;99.90;;;;;;5032452;28;20736;-82
2023/04/23 02:28:38;;;;;;;27.30;18.37;;;9.40;99.90;;;;;;5033010;28;20272;-81
2023/04/23 02:31:04;;;;;;;25.50;18.10;;;9.40;99.90;;;;;;5034940;28;20172;-81
2023/04/23 02:33:29;;;;;;;25.50;18.43;;;9.30;99.90;;;;;;5034371;28;20238;-81
2023/04/23 02:35:55;;;;;;;27.47;18.20;;;9.30;99.90;;;;;;5032913;28;20199;-81
2023/04/23 02:38:20;;;;;;;25.37;18.60;;;9.20;99.90;;;;;;5034508;28;20169;-81
2023/04/23 02:40:46;;;;;;;25.37;17.97;;;9.20;99.90;;;;;;5033786;28;20682;-82
2023/04/23 02:43:11;;;;;;;26.97;18.57;;;9.20;99.90;;;;;;5034873;28;20232;-80
2023/04/23 02:45:37;;;;;;;28.87;19.97;;;9.20;99.90;;;;;;5035090;28;20196;-81
2023/04/23 02:48:03;;;;;;;25.10;18.57;;;9.20;99.90;;;;;;5037897;28;20179;-82
2023/04/23 02:50:29;;;;;;;26.27;19.50;;;9.10;99.90;;;;;;5039151;28;20174;-80
2023/04/23 02:52:55;;;;;;;27.40;19.10;;;9.20;99.90;;;;;;5033302;28;20232;-80
2023/04/23 02:55:20;;;;;;;27.37;18.23;;;9.20;99.90;;;;;;5031526;28;20703;-81
2023/04/23 02:57:46;;;;;;;26.67;18.60;;;9.20;99.90;;;;;;5033330;28;20203;-81
2023/04/23 03:00:13;;;;;;;28.93;19.43;;;9.10;99.90;;;;;;5032775;28;20585;-81
2023/04/23 03:02:39;;;;;;;31.80;20.13;;;9.20;99.90;;;;;;5032024;28;20674;-81
2023/04/23 03:05:06;;;;;;;27.10;19.67;;;9.10;99.90;;;;;;5032945;28;20188;-81
2023/04/23 03:07:31;;;;;;;26.63;19.43;;;9.20;99.90;;;;;;5031684;28;20731;-81
2023/04/23 03:09:57;;;;;;;28.33;19.73;;;9.20;99.90;;;;;;5031942;28;20176;-81
2023/04/23 03:12:22;;;;;;;28.83;19.00;;;9.20;99.90;;;;;;5032856;28;20207;-80
2023/04/23 03:14:48;;;;;;;27.13;20.60;;;9.20;99.90;;;;;;5032897;28;20215;-81
2023/04/23 03:17:14;;;;;;;31.47;20.43;;;9.30;99.90;;;;;;5032770;28;20177;-80
2023/04/23 03:19:39;;;;;;;29.10;20.57;;;9.30;99.90;;;;;;5032548;28;20172;-81
2023/04/23 03:22:05;;;;;;;29.60;20.80;;;9.30;99.90;;;;;;5032234;28;20264;-81
2023/04/23 03:24:32;;;;;;;30.87;21.70;;;9.30;99.90;;;;;;5032451;28;20226;-80
2023/04/23 03:26:57;;;;;;;25.47;20.00;;;9.30;99.90;;;;;;5032554;28;20183;-81
2023/04/23 03:29:23;;;;;;;30.57;21.90;;;9.30;99.90;;;;;;5031457;28;20180;-81
2023/04/23 03:31:48;;;;;;;27.93;20.13;;;9.30;99.90;;;;;;5033655;28;20180;-80
2023/04/23 03:34:14;;;;;;;28.37;20.47;;;9.40;99.90;;;;;;5032647;28;20244;-81
2023/04/23 03:36:39;;;;;;;30.53;20.90;;;9.40;99.90;;;;;;5033675;28;20633;-81
2023/04/23 03:39:06;;;;;;;29.97;20.57;;;9.40;99.90;;;;;;5035882;28;20177;-81
2023/04/23 03:41:31;;;;;;;30.10;21.07;;;9.40;99.90;;;;;;5035029;28;20597;-81
2023/04/23 03:43:57;;;;;;;30.83;21.90;;;9.40;99.90;;;;;;5035729;28;20185;-81
2023/04/23 03:46:22;;;;;;;30.03;21.27;;;9.30;99.90;;;;;;5034972;28;20180;-80
2023/04/23 03:48:48;;;;;;;28.80;20.87;;;9.40;99.90;;;;;;5035917;28;20186;-80
2023/04/23 03:51:14;;;;;;;26.97;20.67;;;9.30;99.90;;;;;;5035108;28;20185;-81
2023/04/23 03:53:39;;;;;;;29.80;21.27;;;9.30;99.90;;;;;;5036057;28;20196;-81
2023/04/23 03:56:05;;;;;;;30.20;22.17;;;9.40;99.90;;;;;;5034065;28;20275;-81
2023/04/23 03:58:30;;;;;;;32.13;22.07;;;9.30;99.90;;;;;;5035106;28;20188;-81
2023/04/23 04:00:56;;;;;;;29.60;22.57;;;9.30;99.90;;;;;;5035112;28;20548;-80
2023/04/23 04:03:22;;;;;;;30.33;21.27;;;9.30;99.90;;;;;;5034859;28;20187;-80
2023/04/23 04:05:47;;;;;;;29.07;20.70;;;9.40;99.90;;;;;;5035084;28;20204;-81
2023/04/23 04:08:13;;;;;;;31.07;22.17;;;9.30;99.90;;;;;;5035684;28;20644;-81
2023/04/23 04:10:39;;;;;;;29.53;21.90;;;9.30;99.90;;;;;;5039582;28;20263;-81
2023/04/23 04:13:05;;;;;;;31.27;21.83;;;9.30;99.90;;;;;;5033669;28;20211;-81
2023/04/23 04:15:31;;;;;;;31.53;21.60;;;9.30;99.90;;;;;;5034989;28;20188;-81
2023/04/23 04:17:57;;;;;;;28.67;21.00;;;9.30;99.90;;;;;;5035223;28;20192;-81
2023/04/23 04:20:23;;;;;;;29.50;21.40;;;9.30;99.90;;;;;;5033846;28;20187;-81
2023/04/23 04:22:48;;;;;;;29.20;21.13;;;9.30;99.90;;;;;;5035317;28;20176;-81
2023/04/23 04:25:14;;;;;;;29.60;21.30;;;9.30;99.90;;;;;;5035090;28;20277;-81
2023/04/23 04:27:40;;;;;;;26.77;20.30;;;9.30;99.90;;;;;;5034994;28;20194;-81
2023/04/23 04:30:07;;;;;;;30.57;20.53;;;9.30;99.90;;;;;;5034892;28;20168;-81
2023/04/23 04:32:33;;;;;;;32.77;22.23;;;9.30;99.90;;;;;;5034154;28;20203;-80
2023/04/23 04:34:58;;;;;;;27.83;20.63;;;9.30;99.90;;;;;;5032435;28;20244;-81
2023/04/23 04:37:24;;;;;;;28.87;21.17;;;9.30;99.90;;;;;;5034223;28;20211;-80
2023/04/23 04:39:50;;;;;;;28.67;20.37;;;9.30;99.90;;;;;;5034796;28;20165;-80
2023/04/23 04:42:15;;;;;;;28.23;21.13;;;9.30;99.90;;;;;;5034126;28;20616;-80
2023/04/23 04:44:42;;;;;;;33.27;21.63;;;9.30;99.90;;;;;;5032722;28;20267;-79
2023/04/23 04:47:08;;;;;;;25.60;19.80;;;9.40;99.90;;;;;;5033041;28;20184;-80
2023/04/23 04:49:33;;;;;;;32.17;21.00;;;9.30;99.90;;;;;;5034943;28;20172;-79
2023/04/23 04:51:59;;;;;;;29.90;20.97;;;9.30;99.90;;;;;;5034783;28;20184;-80
2023/04/23 04:54:25;;;;;;;28.87;20.57;;;9.30;99.90;;;;;;5034439;28;20211;-79
2023/04/23 04:56:50;;;;;;;28.93;20.10;;;9.30;99.90;;;;;;5034707;28;20169;-80
2023/04/23 04:59:16;;;;;;;27.63;20.77;;;9.30;99.90;;;;;;5034386;28;20202;-80
2023/04/23 05:01:42;;;;;;;28.70;20.23;;;9.30;99.90;;;;;;5032856;28;20237;-80
2023/04/23 05:04:07;;;;;;;29.20;19.47;;;9.30;99.90;;;;;;5035062;28;20228;-80
2023/04/23 05:06:33;;;;;;;29.80;20.30;;;9.40;99.90;;;;;;5032612;28;20182;-79
2023/04/23 05:08:58;;;;;;;28.60;21.00;;;9.40;99.90;;;;;;5034647;28;20489;-80
2023/04/23 05:11:24;;;;;;;31.40;20.37;;;9.50;99.90;;;;;;5033854;28;20705;-80
2023/04/23 05:13:50;;;;;;;30.60;21.07;;;9.50;99.90;;;;;;5032499;28;20203;-80
2023/04/23 05:16:15;;;;;;;29.17;20.97;;;9.60;99.90;;;;;;5033072;28;20208;-79
2023/04/23 05:18:41;;;;;;;31.03;20.63;;;9.60;99.90;;;;;;5034106;28;20761;-79
2023/04/23 05:21:07;;;;;;;29.63;21.17;;;9.70;99.90;;;;;;5033569;28;20208;-80
2023/04/23 05:23:33;;;;;;;32.70;22.80;;;9.80;99.90;;;;;;5032513;28;20222;-80
2023/04/23 05:25:59;;;;;;;32.97;22.30;;;10.00;99.90;;;;;;5032963;28;20291;-80
2023/04/23 05:28:25;;;;;;;33.20;22.43;;;10.10;99.90;;;;;;5032448;28;20667;-80
2023/04/23 05:30:51;;;;;;;29.97;21.90;;;10.10;99.90;;;;;;5033696;28;20177;-80
2023/04/23 05:33:17;;;;;;;29.43;21.13;;;10.10;99.90;;;;;;5032397;28;20230;-80
2023/04/23 05:35:42;;;;;;;32.87;21.90;;;10.10;99.90;;;;;;5032446;28;20655;-80
2023/04/23 05:38:09;;;;;;;32.10;22.00;;;10.20;99.90;;;;;;5033813;28;20222;-80
2023/04/23 05:40:34;;;;;;;34.23;22.80;;;10.20;99.90;;;;;;5032152;28;20652;-79
2023/04/23 05:43:00;;;;;;;31.87;22.03;;;10.20;99.90;;;;;;5033756;28;20188;-80
2023/04/23 05:45:26;;;;;;;29.30;20.57;;;10.30;99.90;;;;;;5033579;28;20685;-80
2023/04/23 05:47:52;;;;;;;26.47;18.93;;;10.30;99.90;;;;;;5031740;28;20180;-78
2023/04/23 05:50:18;;;;;;;24.40;18.87;;;10.30;99.90;;;;;;5033370;28;20569;-79
2023/04/23 05:52:43;;;;;;;25.87;18.87;;;10.30;99.90;;;;;;5032858;28;20180;-79
2023/04/23 05:55:10;;;;;;;24.73;19.10;;;10.30;99.90;;;;;;5032926;28;20188;-79
2023/04/23 05:57:36;;;;;;;29.07;19.47;;;10.30;99.90;;;;;;5033574;28;20180;-78
2023/04/23 06:00:04;;;;;;;25.47;18.53;;;10.30;99.90;;;;;;5032607;28;20224;-79
2023/04/23 06:02:30;;;;;;;21.83;16.60;;;10.40;99.90;;;;;;5031264;28;20176;-79
2023/04/23 06:04:55;;;;;;;23.70;17.20;;;10.40;99.90;;;;;;5033353;28;20265;-79
2023/04/23 06:07:21;;;;;;;25.90;18.90;;;10.50;99.90;;;;;;5031263;28;20525;-78
2023/04/23 06:09:46;;;;;;;27.20;18.20;;;10.50;99.90;;;;;;5032527;28;20500;-79
2023/04/23 06:12:12;;;;;;;22.73;17.40;;;10.60;99.90;;;;;;5031408;28;20689;-78
2023/04/23 06:14:37;;;;;;;27.20;16.87;;;10.60;99.90;;;;;;5032131;28;20214;-78
2023/04/23 06:17:03;;;;;;;22.47;16.93;;;10.60;99.90;;;;;;5031696;28;20260;-78
2023/04/23 06:19:28;;;;;;;21.90;16.73;;;10.70;99.90;;;;;;5032776;28;20208;-79
2023/04/23 06:21:54;;;;;;;24.33;17.57;;;10.70;99.90;;;;;;5032939;28;20264;-79
2023/04/23 06:24:20;;;;;;;21.70;16.70;;;10.80;99.90;;;;;;5033161;28;20210;-79
2023/04/23 06:26:45;;;;;;;25.10;17.53;;;10.80;99.90;;;;;;5032969;28;20663;-79
2023/04/23 06:29:11;;;;;;;23.43;18.10;;;10.80;99.90;;;;;;5033136;28;20172;-79
2023/04/23 06:31:37;;;;;;;23.93;15.90;;;10.90;99.90;;;;;;5033905;28;20172;-79
2023/04/23 06:34:02;;;;;;;20.63;16.33;;;11.00;99.90;;;;;;5031131;28;20539;-78
2023/04/23 06:36:28;;;;;;;21.57;16.20;;;11.00;99.90;;;;;;5032523;28;20172;-78
2023/04/23 06:38:53;;;;;;;19.00;14.83;;;11.00;99.90;;;;;;5031910;28;20182;-79
2023/04/23 06:41:19;;;;;;;19.53;16.10;;;11.10;99.90;;;;;;5033011;28;20164;-78
2023/04/23 06:43:47;;;;;;;21.17;15.53;;;11.20;99.90;;;;;;5032243;28;20226;-79
2023/04/23 06:46:13;;;;;;;21.83;15.83;;;11.20;99.90;;;;;;5032176;28;20340;-79
2023/04/23 06:48:38;;;;;;;21.50;15.57;;;11.30;99.90;;;;;;5033475;28;20603;-78
2023/04/23 06:51:04;;;;;;;21.07;15.57;;;11.30;99.90;;;;;;5031072;28;20176;-79
2023/04/23 06:53:30;;;;;;;19.73;16.07;;;11.40;99.90;;;;;;5029862;28;20203;-80
2023/04/23 06:55:56;;;;;;;21.27;15.77;;;11.50;99.90;;;;;;5030066;28;20193;-78
2023/04/23 06:58:26;;;;;;;16.90;14.13;;;11.50;99.90;;;;;;5031336;28;20188;-79
2023/04/23 07:00:52;;;;;;;19.97;14.23;;;11.60;99.90;;;;;;5030284;28;20181;-78
2023/04/23 07:03:18;;;;;;;17.10;14.33;;;11.70;99.90;;;;;;5031077;28;20184;-78
2023/04/23 07:05:43;;;;;;;18.40;14.43;;;11.80;99.90;;;;;;5029918;28;20569;-78
2023/04/23 07:08:09;;;;;;;17.03;13.90;;;11.80;99.90;;;;;;5029411;28;20602;-78
2023/04/23 07:10:35;;;;;;;16.10;13.77;;;11.80;99.90;;;;;;5031490;28;20207;-78
2023/04/23 07:13:00;;;;;;;16.37;12.37;;;11.90;99.90;;;;;;5033346;28;20706;-79
2023/04/23 07:15:26;;;;;;;17.67;12.20;;;11.90;99.90;;;;;;5036570;28;20193;-79
2023/04/23 07:17:51;;;;;;;17.33;12.00;;;12.00;99.90;;;;;;5035907;28;20161;-79
2023/04/23 07:20:17;;;;;;;11.77;9.47;;;12.10;99.90;;;;;;5034455;28;20180;-79
2023/04/23 07:22:45;;;;;;;13.97;10.87;;;12.10;99.90;;;;;;5035537;28;20184;-79
2023/04/23 07:25:11;;;;;;;11.77;9.97;;;12.20;99.90;;;;;;5034207;28;20188;-79
2023/04/23 07:27:36;;;;;;;13.70;10.67;;;12.20;99.90;;;;;;5035310;28;20230;-79
2023/04/23 07:30:03;;;;;;;13.27;10.37;;;12.20;99.90;;;;;;5036055;28;20176;-79
2023/04/23 07:32:29;;;;;;;11.47;9.37;;;12.30;99.90;;;;;;5035109;28;20196;-80
2023/04/23 07:34:55;;;;;;;13.50;10.43;;;12.30;99.90;;;;;;5035889;28;20215;-79
2023/04/23 07:37:21;;;;;;;11.50;9.23;;;12.40;99.90;;;;;;5035961;28;20183;-79
2023/04/23 07:39:46;;;;;;;9.40;8.40;;;12.50;99.90;;;;;;5034789;28;20292;-79
2023/04/23 07:42:12;;;;;;;10.63;9.23;;;12.60;99.90;;;;;;5036402;28;20184;-79
2023/04/23 07:44:38;;;;;;;9.70;8.30;;;12.70;99.90;;;;;;5034815;28;20281;-79
2023/04/23 07:47:03;;;;;;;9.23;7.63;;;12.70;99.90;;;;;;5036083;28;20550;-80
2023/04/23 07:49:29;;;;;;;11.07;7.70;;;12.70;99.90;;;;;;5035703;28;20196;-80
2023/04/23 07:51:55;;;;;;;14.17;7.43;;;12.90;99.90;;;;;;5034610;28;20180;-80
2023/04/23 07:54:21;;;;;;;8.60;6.93;;;12.90;99.90;;;;;;5035392;28;20579;-80
2023/04/23 07:56:46;;;;;;;10.13;6.87;;;13.00;99.90;;;;;;5035441;28;20227;-80
2023/04/23 07:59:12;;;;;;;9.23;6.40;;;13.10;99.90;;;;;;5035340;28;20264;-80
2023/04/23 08:01:38;;;;;;;7.40;6.07;;;13.20;99.90;;;;;;5033789;28;20256;-77
2023/04/23 08:04:03;;;;;;;6.90;5.30;;;13.20;99.90;;;;;;5033148;28;20592;-78
2023/04/23 08:06:30;;;;;;;9.20;5.23;;;13.40;99.90;;;;;;5033089;28;20180;-78
2023/04/23 08:08:56;;;;;;;8.40;5.90;;;13.50;99.90;;;;;;5033243;28;20227;-79
2023/04/23 08:11:22;;;;;;;6.53;4.90;;;13.50;99.90;;;;;;5035371;28;20659;-80
2023/04/23 08:13:48;;;;;;;7.50;5.43;;;13.60;99.90;;;;;;5032351;28;20204;-78
2023/04/23 08:16:13;;;;;;;8.33;5.07;;;13.60;99.90;;;;;;5034433;28;20199;-79
2023/04/23 08:18:39;;;;;;;9.17;5.90;;;13.70;99.90;;;;;;5033157;28;20173;-79
2023/04/23 08:21:05;;;;;;;8.20;5.23;;;13.80;99.90;;;;;;5033677;28;20196;-79
2023/04/23 08:23:30;;;;;;;6.83;5.10;;;13.80;99.90;;;;;;5032546;28;20686;-79
2023/04/23 08:25:56;;;;;;;5.87;4.27;;;13.80;99.90;;;;;;5034449;28;20286;-79
2023/04/23 08:28:21;;;;;;;5.50;4.50;;;13.90;99.90;;;;;;5033639;28;20168;-79
2023/04/23 08:30:47;;;;;;;6.67;4.70;;;14.00;99.90;;;;;;5031325;28;20282;-79
2023/04/23 08:33:13;;;;;;;4.20;3.80;;;14.00;99.90;;;;;;5033099;28;20208;-79
2023/04/23 08:35:39;;;;;;;6.40;4.07;;;14.20;99.90;;;;;;5033811;28;20197;-79
2023/04/23 08:38:04;;;;;;;4.83;3.20;;;14.20;99.90;;;;;;5033123;28;20222;-79
2023/04/23 08:40:31;;;;;;;5.53;3.43;;;14.30;99.90;;;;;;5033511;28;20176;-78
2023/04/23 08:43:01;;;;;;;7.57;3.90;;;14.30;99.90;;;;;;5032228;28;20267;-82
2023/04/23 08:45:28;;;;;;;5.73;3.30;;;14.40;99.90;;;;;;5032589;28;20675;-79
2023/04/23 08:47:58;;;;;;;7.97;4.10;;;14.40;99.90;;;;;;5033836;28;20659;-79
2023/04/23 08:50:24;;;;;;;6.87;3.60;;;14.50;99.90;;;;;;5033671;28;20620;-79
2023/04/23 08:52:54;;;;;;;3.97;3.27;;;14.60;99.90;;;;;;5032692;28;20176;-79
2023/04/23 08:55:21;;;;;;;7.77;3.20;;;14.70;99.90;;;;;;5033097;28;20198;-79
2023/04/23 08:57:48;;;;;;;7.87;3.80;;;14.70;99.90;;;;;;5032093;28;20259;-79
2023/04/23 09:00:15;;;;;;;6.77;3.10;;;14.90;99.90;;;;;;5032587;28;20195;-79
2023/04/23 09:02:43;;;;;;;5.30;3.40;;;15.00;99.90;;;;;;5032392;28;20168;-79
2023/04/23 09:05:11;;;;;;;3.43;3.03;;;15.10;99.90;;;;;;5033819;28;20185;-79
2023/04/23 09:07:37;;;;;;;5.60;3.33;;;15.20;99.90;;;;;;5033828;28;20194;-79
2023/04/23 09:10:05;;;;;;;7.33;3.63;;;15.20;99.90;;;;;;5032140;28;20651;-79
2023/04/23 09:12:31;;;;;;;6.17;2.70;;;15.30;99.90;;;;;;5033217;28;20208;-78
2023/04/23 09:14:57;;;;;;;6.27;3.20;;;15.30;99.90;;;;;;5033246;28;20200;-79
2023/04/23 09:17:26;;;;;;;6.00;3.30;;;15.40;99.90;;;;;;5032815;28;20183;-79
2023/04/23 09:19:53;;;;;;;5.23;3.07;;;15.50;99.90;;;;;;5033095;28;20176;-79
2023/04/23 09:22:39;;;;;;;6.70;2.50;;;15.50;99.90;;;;;;5034694;28;20204;-79
2023/04/23 09:25:10;;;;;;;4.93;2.43;;;15.60;99.90;;;;;;5034016;28;20199;-79
2023/04/23 09:27:38;;;;;;;5.43;2.37;;;15.70;99.90;;;;;;5033855;28;20164;-79
2023/04/23 09:30:06;;;;;;;5.43;2.77;;;15.80;99.90;;;;;;5033683;28;20172;-79
2023/04/23 09:32:37;;;;;;;4.23;2.10;;;15.80;99.90;;;;;;5034012;28;20199;-79
2023/04/23 09:35:07;;;;;;;7.03;2.17;;;15.90;99.90;;;;;;5031288;28;20717;-79
2023/04/23 09:37:33;;;;;;;2.87;1.77;;;15.90;99.90;;;;;;5034121;28;20271;-80
2023/04/23 09:40:04;;;;;;;6.77;2.10;;;16.00;99.90;;;;;;5033117;28;20243;-80
2023/04/23 09:42:31;;;;;;;6.20;2.07;;;16.00;99.90;;;;;;5033256;28;20160;-79
2023/04/23 09:45:10;;;;;;;4.30;2.03;;;16.10;99.90;;;;;;5033058;28;20184;-79
2023/04/23 09:47:40;;;;;;;4.23;1.97;;;16.30;99.90;;;;;;5031929;28;20259;-79
2023/04/23 09:50:09;;;;;;;4.80;2.37;;;16.50;99.90;;;;;;5029935;28;20179;-78
2023/04/23 09:52:38;;;;;;;6.23;1.83;;;16.60;99.90;;;;;;5030419;28;20184;-78
2023/04/23 09:55:04;;;;;;;2.97;2.03;;;16.70;99.90;;;;;;5030244;28;20204;-78
2023/04/23 09:57:50;;;;;;;4.03;2.00;;;16.90;99.90;;;;;;5030056;28;20252;-79
2023/04/23 10:00:21;;;;;;;6.67;2.10;;;16.90;99.90;;;;;;5031941;28;20197;-78
2023/04/23 10:02:51;;;;;;;7.00;2.23;;;16.90;99.90;;;;;;5030699;28;20161;-78
2023/04/23 10:05:18;;;;;;;3.27;1.60;;;17.00;99.90;;;;;;5031302;28;20664;-78
2023/04/23 10:07:45;;;;;;;4.67;2.20;;;17.10;99.90;;;;;;5029734;28;20718;-78
2023/04/23 10:10:11;;;;;;;5.37;2.07;;;17.20;99.90;;;;;;5029841;28;20184;-78
2023/04/23 10:12:37;;;;;;;4.43;2.00;;;17.20;99.90;;;;;;5029864;28;20192;-78
2023/04/23 10:15:04;;;;;;;4.10;2.10;;;17.10;99.90;;;;;;5030512;28;20510;-78
2023/04/23 10:17:30;;;;;;;4.03;2.30;;;17.00;99.90;;;;;;5029797;28;20187;-78
2023/04/23 10:19:59;;;;;;;2.87;1.97;;;17.00;99.90;;;;;;5028864;28;20169;-78
2023/04/23 10:22:29;;;;;;;3.27;1.80;;;17.00;99.90;;;;;;5029103;28;20183;-79
2023/04/23 10:24:59;;;;;;;6.57;2.40;;;17.10;99.90;;;;;;5033001;28;20206;-78
2023/04/23 10:27:29;;;;;;;4.63;1.93;;;17.10;99.90;;;;;;5029902;28;20198;-78
2023/04/23 10:29:56;;;;;;;3.77;2.00;;;17.20;99.90;;;;;;5029983;28;20172;-78
2023/04/23 10:32:23;;;;;;;3.77;1.83;;;17.30;99.90;;;;;;5030003;28;20183;-78
2023/04/23 10:34:49;;;;;;;4.43;1.60;;;17.30;99.90;;;;;;5028668;28;20204;-78
2023/04/23 10:37:18;;;;;;;2.40;1.60;;;17.40;99.90;;;;;;5029388;28;20228;-78
2023/04/23 10:39:48;;;;;;;2.33;1.90;;;17.30;99.90;;;;;;5031340;28;20298;-78
2023/04/23 10:42:15;;;;;;;2.87;1.60;;;17.30;99.90;;;;;;5031045;28;20153;-79
2023/04/23 10:44:42;;;;;;;4.63;1.77;;;17.20;99.90;;;;;;5032939;28;20196;-79
2023/04/23 10:47:13;;;;;;;4.17;1.90;;;17.20;99.90;;;;;;5032536;28;20179;-78
2023/04/23 10:49:38;;;;;;;4.10;1.83;;;17.20;99.90;;;;;;5032045;28;20192;-78
2023/04/23 10:52:09;;;;;;;2.50;1.37;;;17.20;99.90;;;;;;5032112;28;20651;-78
2023/04/23 10:54:36;;;;;;;2.40;1.30;;;17.20;99.90;;;;;;5032930;28;20208;-78
2023/04/23 10:57:04;;;;;;;3.83;1.50;;;17.10;99.90;;;;;;5033847;28;20531;-78
2023/04/23 10:59:34;;;;;;;4.17;1.73;;;17.10;99.90;;;;;;5033060;28;20543;-78
2023/04/23 11:02:11;;;;;;;1.90;1.40;;;17.10;99.90;;;;;;5033535;28;20168;-78
2023/04/23 11:04:53;;;;;;;2.80;1.60;;;17.10;99.90;;;;;;5033652;28;20191;-78
2023/04/23 11:07:19;;;;;;;6.93;1.33;;;17.00;99.90;;;;;;5034755;28;20160;-78
2023/04/23 11:09:46;;;;;;;2.50;1.20;;;17.10;99.90;;;;;;5032820;28;20187;-78
2023/04/23 11:12:27;;;;;;;1.90;1.07;;;17.10;99.90;;;;;;5034241;28;20199;-79
2023/04/23 11:14:54;;;;;;;2.67;1.50;;;17.20;99.90;;;;;;5034223;28;20335;-79
2023/04/23 11:17:43;;;;;;;3.47;1.20;;;17.20;99.90;;;;;;5033780;28;20692;-78
2023/04/23 11:20:12;;;;;;;6.10;1.67;;;17.10;99.90;;;;;;5033758;28;20190;-78
2023/04/23 11:22:53;;;;;;;4.50;1.33;;;17.30;99.90;;;;;;5033721;28;20275;-78
2023/04/23 11:25:19;;;;;;;3.20;1.30;;;17.40;99.90;;;;;;5031425;28;20315;-77
2023/04/23 11:27:46;;;;;;;2.40;1.20;;;17.50;99.90;;;;;;5032390;28;20196;-78
2023/04/23 11:30:15;;;;;;;3.07;1.40;;;17.60;99.90;;;;;;5033786;28;20699;-78
2023/04/23 11:32:43;;;;;;;4.10;1.50;;;17.70;99.90;;;;;;5034018;28;20580;-78
2023/04/23 11:35:09;;;;;;;2.47;1.23;;;17.70;99.90;;;;;;5033405;28;20200;-78
2023/04/23 11:37:43;;;;;;;4.07;1.30;;;17.80;99.90;;;;;;5034075;28;20540;-78
2023/04/23 11:40:12;;;;;;;3.97;1.70;;;17.80;99.90;;;;;;5033637;28;20179;-78
2023/04/23 11:42:56;;;;;;;1.60;0.93;;;17.70;99.90;;;;;;5032717;28;20172;-78
2023/04/23 11:45:24;;;;;;;3.67;0.87;;;17.80;99.90;;;;;;5033397;28;20209;-78
2023/04/23 11:47:54;;;;;;;2.63;0.87;;;17.70;99.90;;;;;;5034069;28;20183;-78
2023/04/23 11:50:31;;;;;;;3.00;1.10;;;17.80;99.90;;;;;;5031641;28;20201;-77
2023/04/23 11:53:18;;;;;;;2.73;0.87;;;17.80;99.90;;;;;;5034691;28;20202;-78
2023/04/23 11:55:47;;;;;;;5.70;1.47;;;17.90;99.90;;;;;;5035637;28;20208;-78
2023/04/23 11:58:16;;;;;;;2.73;0.80;;;18.00;99.90;;;;;;5036105;28;20263;-78
2023/04/23 12:00:42;;;;;;;3.70;1.10;;;18.10;99.90;;;;;;5034194;28;20168;-78
2023/04/23 12:03:08;;;;;;;2.80;1.10;;;18.10;99.90;;;;;;5034904;28;20255;-79
2023/04/23 12:05:36;;;;;;;2.57;0.90;;;18.20;99.90;;;;;;5035866;28;20189;-79
2023/04/23 12:08:15;;;;;;;2.83;1.10;;;18.30;99.90;;;;;;5036750;28;20169;-79
2023/04/23 12:10:46;;;;;;;3.07;1.20;;;18.30;99.90;;;;;;5037550;28;20251;-79
2023/04/23 12:13:16;;;;;;;3.20;1.03;;;18.40;99.90;;;;;;5032548;28;20218;-79
2023/04/23 12:15:50;;;;;;;6.10;1.40;;;18.50;99.90;;;;;;5033340;28;20197;-78
2023/04/23 12:18:16;;;;;;;3.20;0.87;;;18.50;99.90;;;;;;5034110;28;20178;-78
2023/04/23 12:20:42;;;;;;;3.30;1.17;;;18.40;99.90;;;;;;5032830;28;20237;-78
2023/04/23 12:23:08;;;;;;;2.30;0.63;;;18.40;99.90;;;;;;5034336;28;20172;-79
2023/04/23 12:25:34;;;;;;;4.57;0.93;;;18.40;99.90;;;;;;5033213;28;20188;-78
2023/04/23 12:28:02;;;;;;;1.83;0.90;;;18.40;99.90;;;;;;5034676;28;20188;-78
2023/04/23 12:30:29;;;;;;;2.43;0.93;;;18.40;99.90;;;;;;5032259;28;20173;-78
2023/04/23 12:32:59;;;;;;;2.97;1.03;;;18.50;99.90;;;;;;5033211;28;20204;-79
2023/04/23 12:35:38;;;;;;;1.67;0.93;;;18.60;99.90;;;;;;5035768;28;20189;-79
2023/04/23 12:38:05;;;;;;;2.27;0.90;;;18.70;99.90;;;;;;5035472;28;20173;-79